sensor_id;sensor_type;location;lat;lon;timestamp;P1;durP1;ratioP1;P2;durP2;ratioP2
2898;SDS011;1459;50.864;6.438;2022-09-12T00:02:02;12.90;;;11.60;;
2898;SDS011;1459;50.864;6.438;2022-09-12T00:04:29;13.80;;;12.30;;
2898;SDS011;1459;50.864;6.438;2022-09-12T00:06:57;15.57;;;13.60;;
2898;SDS011;1459;50.864;6.438;2022-09-12T00:09:24;14.27;;;12.70;;
2898;SDS011;1459;50.864;6.438;2022-09-12T00:11:52;14.10;;;12.70;;
2898;SDS011;1459;50.864;6.438;2022-09-12T00:14:19;17.60;;;12.55;;
2898;SDS011;1459;50.864;6.438;2022-09-12T00:16:46;15.35;;;12.40;;
2898;SDS011;1459;50.864;6.438;2022-09-12T00:19:14;13.68;;;12.35;;
2898;SDS011;1459;50.864;6.438;2022-09-12T00:21:41;14.25;;;11.80;;
2898;SDS011;1459;50.864;6.438;2022-09-12T00:24:08;15.43;;;13.35;;
2898;SDS011;1459;50.864;6.438;2022-09-12T00:26:35;13.93;;;12.45;;
2898;SDS011;1459;50.864;6.438;2022-09-12T00:29:04;14.23;;;12.25;;
2898;SDS011;1459;50.864;6.438;2022-09-12T00:31:31;14.85;;;13.45;;
2898;SDS011;1459;50.864;6.438;2022-09-12T00:33:58;15.25;;;12.70;;
2898;SDS011;1459;50.864;6.438;2022-09-12T00:36:26;13.98;;;12.45;;
2898;SDS011;1459;50.864;6.438;2022-09-12T00:38:54;14.60;;;12.80;;
2898;SDS011;1459;50.864;6.438;2022-09-12T00:41:22;20.13;;;14.95;;
2898;SDS011;1459;50.864;6.438;2022-09-12T00:43:51;18.60;;;15.75;;
2898;SDS011;1459;50.864;6.438;2022-09-12T00:46:29;17.05;;;15.25;;
2898;SDS011;1459;50.864;6.438;2022-09-12T00:49:02;17.77;;;15.88;;
2898;SDS011;1459;50.864;6.438;2022-09-12T00:51:31;18.80;;;16.75;;
2898;SDS011;1459;50.864;6.438;2022-09-12T00:54:02;17.77;;;15.93;;
2898;SDS011;1459;50.864;6.438;2022-09-12T00:56:33;17.70;;;15.13;;
2898;SDS011;1459;50.864;6.438;2022-09-12T00:59:04;17.50;;;14.68;;
2898;SDS011;1459;50.864;6.438;2022-09-12T01:01:35;20.08;;;14.40;;
2898;SDS011;1459;50.864;6.438;2022-09-12T01:04:03;18.70;;;15.40;;
2898;SDS011;1459;50.864;6.438;2022-09-12T01:06:32;17.83;;;15.15;;
2898;SDS011;1459;50.864;6.438;2022-09-12T01:09:02;18.85;;;16.40;;
2898;SDS011;1459;50.864;6.438;2022-09-12T01:11:30;18.35;;;16.30;;
2898;SDS011;1459;50.864;6.438;2022-09-12T01:14:01;19.20;;;17.15;;
2898;SDS011;1459;50.864;6.438;2022-09-12T01:16:28;19.08;;;16.02;;
2898;SDS011;1459;50.864;6.438;2022-09-12T01:18:59;19.25;;;16.88;;
2898;SDS011;1459;50.864;6.438;2022-09-12T01:21:35;22.27;;;16.38;;
2898;SDS011;1459;50.864;6.438;2022-09-12T01:24:22;20.75;;;15.88;;
2898;SDS011;1459;50.864;6.438;2022-09-12T01:27:16;22.67;;;17.10;;
2898;SDS011;1459;50.864;6.438;2022-09-12T01:33:07;21.70;;;18.95;;
2898;SDS011;1459;50.864;6.438;2022-09-12T01:35:59;25.10;;;19.38;;
2898;SDS011;1459;50.864;6.438;2022-09-12T01:38:37;21.58;;;18.15;;
2898;SDS011;1459;50.864;6.438;2022-09-12T01:41:09;22.25;;;19.23;;
2898;SDS011;1459;50.864;6.438;2022-09-12T01:43:43;26.75;;;20.25;;
2898;SDS011;1459;50.864;6.438;2022-09-12T01:46:15;24.48;;;21.10;;
2898;SDS011;1459;50.864;6.438;2022-09-12T01:48:47;26.05;;;20.17;;
2898;SDS011;1459;50.864;6.438;2022-09-12T01:51:22;25.00;;;19.45;;
2898;SDS011;1459;50.864;6.438;2022-09-12T01:53:55;26.88;;;20.50;;
2898;SDS011;1459;50.864;6.438;2022-09-12T01:56:28;26.23;;;19.67;;
2898;SDS011;1459;50.864;6.438;2022-09-12T01:59:00;30.23;;;21.27;;
2898;SDS011;1459;50.864;6.438;2022-09-12T02:01:30;21.52;;;19.33;;
2898;SDS011;1459;50.864;6.438;2022-09-12T02:04:02;24.92;;;19.42;;
2898;SDS011;1459;50.864;6.438;2022-09-12T02:06:34;24.13;;;20.40;;
2898;SDS011;1459;50.864;6.438;2022-09-12T02:09:07;22.73;;;18.45;;
2898;SDS011;1459;50.864;6.438;2022-09-12T02:11:40;23.35;;;18.52;;
2898;SDS011;1459;50.864;6.438;2022-09-12T02:14:10;25.65;;;21.40;;
2898;SDS011;1459;50.864;6.438;2022-09-12T02:16:42;21.55;;;19.23;;
2898;SDS011;1459;50.864;6.438;2022-09-12T02:19:16;23.40;;;20.23;;
2898;SDS011;1459;50.864;6.438;2022-09-12T02:21:45;24.98;;;20.58;;
2898;SDS011;1459;50.864;6.438;2022-09-12T02:24:18;24.20;;;19.30;;
2898;SDS011;1459;50.864;6.438;2022-09-12T02:26:48;23.73;;;20.77;;
2898;SDS011;1459;50.864;6.438;2022-09-12T02:29:21;25.70;;;19.60;;
2898;SDS011;1459;50.864;6.438;2022-09-12T02:31:49;24.10;;;20.25;;
2898;SDS011;1459;50.864;6.438;2022-09-12T02:34:30;22.30;;;19.80;;
2898;SDS011;1459;50.864;6.438;2022-09-12T02:37:06;24.02;;;19.48;;
2898;SDS011;1459;50.864;6.438;2022-09-12T02:39:42;29.20;;;22.73;;
2898;SDS011;1459;50.864;6.438;2022-09-12T02:42:10;26.92;;;22.50;;
2898;SDS011;1459;50.864;6.438;2022-09-12T02:44:37;26.67;;;21.00;;
2898;SDS011;1459;50.864;6.438;2022-09-12T02:47:05;25.73;;;20.75;;
2898;SDS011;1459;50.864;6.438;2022-09-12T02:49:37;23.60;;;19.15;;
2898;SDS011;1459;50.864;6.438;2022-09-12T02:52:06;29.08;;;21.00;;
2898;SDS011;1459;50.864;6.438;2022-09-12T02:54:33;28.15;;;21.50;;
2898;SDS011;1459;50.864;6.438;2022-09-12T02:57:02;26.17;;;21.20;;
2898;SDS011;1459;50.864;6.438;2022-09-12T02:59:29;28.50;;;22.95;;
2898;SDS011;1459;50.864;6.438;2022-09-12T03:02:03;30.20;;;22.83;;
2898;SDS011;1459;50.864;6.438;2022-09-12T03:04:50;31.42;;;23.63;;
2898;SDS011;1459;50.864;6.438;2022-09-12T03:07:30;28.83;;;21.25;;
2898;SDS011;1459;50.864;6.438;2022-09-12T03:10:12;30.70;;;21.70;;
2898;SDS011;1459;50.864;6.438;2022-09-12T03:12:50;29.67;;;21.75;;
2898;SDS011;1459;50.864;6.438;2022-09-12T03:15:26;23.15;;;20.63;;
2898;SDS011;1459;50.864;6.438;2022-09-12T03:18:06;29.67;;;22.67;;
2898;SDS011;1459;50.864;6.438;2022-09-12T03:20:47;25.83;;;20.45;;
2898;SDS011;1459;50.864;6.438;2022-09-12T03:23:23;31.65;;;24.10;;
2898;SDS011;1459;50.864;6.438;2022-09-12T03:25:56;30.65;;;22.77;;
2898;SDS011;1459;50.864;6.438;2022-09-12T03:28:28;29.27;;;21.33;;
2898;SDS011;1459;50.864;6.438;2022-09-12T03:30:58;28.08;;;21.08;;
2898;SDS011;1459;50.864;6.438;2022-09-12T03:33:25;35.17;;;24.08;;
2898;SDS011;1459;50.864;6.438;2022-09-12T03:35:56;30.80;;;23.27;;
2898;SDS011;1459;50.864;6.438;2022-09-12T03:38:23;30.38;;;22.92;;
2898;SDS011;1459;50.864;6.438;2022-09-12T03:40:50;28.27;;;20.67;;
2898;SDS011;1459;50.864;6.438;2022-09-12T03:43:17;27.83;;;21.77;;
2898;SDS011;1459;50.864;6.438;2022-09-12T03:45:44;31.88;;;21.55;;
2898;SDS011;1459;50.864;6.438;2022-09-12T03:48:15;29.73;;;20.10;;
2898;SDS011;1459;50.864;6.438;2022-09-12T03:50:42;31.35;;;20.67;;
2898;SDS011;1459;50.864;6.438;2022-09-12T03:53:10;31.73;;;19.92;;
2898;SDS011;1459;50.864;6.438;2022-09-12T03:55:37;33.28;;;21.48;;
2898;SDS011;1459;50.864;6.438;2022-09-12T03:58:04;30.50;;;22.52;;
2898;SDS011;1459;50.864;6.438;2022-09-12T04:00:31;34.35;;;22.25;;
2898;SDS011;1459;50.864;6.438;2022-09-12T04:02:58;33.50;;;23.27;;
2898;SDS011;1459;50.864;6.438;2022-09-12T04:05:25;39.75;;;22.73;;
2898;SDS011;1459;50.864;6.438;2022-09-12T04:07:53;37.42;;;23.15;;
2898;SDS011;1459;50.864;6.438;2022-09-12T04:10:21;33.83;;;21.38;;
2898;SDS011;1459;50.864;6.438;2022-09-12T04:12:48;28.45;;;21.67;;
2898;SDS011;1459;50.864;6.438;2022-09-12T04:15:15;35.85;;;22.17;;
2898;SDS011;1459;50.864;6.438;2022-09-12T04:17:42;35.95;;;21.75;;
2898;SDS011;1459;50.864;6.438;2022-09-12T04:20:09;38.95;;;23.48;;
2898;SDS011;1459;50.864;6.438;2022-09-12T04:22:36;33.70;;;22.30;;
2898;SDS011;1459;50.864;6.438;2022-09-12T04:25:03;35.70;;;23.30;;
2898;SDS011;1459;50.864;6.438;2022-09-12T04:27:32;38.28;;;25.00;;
2898;SDS011;1459;50.864;6.438;2022-09-12T04:30:00;36.15;;;22.85;;
2898;SDS011;1459;50.864;6.438;2022-09-12T04:32:28;40.45;;;24.65;;
2898;SDS011;1459;50.864;6.438;2022-09-12T04:34:56;33.60;;;24.00;;
2898;SDS011;1459;50.864;6.438;2022-09-12T04:37:23;31.17;;;23.20;;
2898;SDS011;1459;50.864;6.438;2022-09-12T04:39:50;33.88;;;24.52;;
2898;SDS011;1459;50.864;6.438;2022-09-12T04:42:21;35.75;;;24.30;;
2898;SDS011;1459;50.864;6.438;2022-09-12T04:44:50;31.08;;;22.70;;
2898;SDS011;1459;50.864;6.438;2022-09-12T04:47:18;33.17;;;22.63;;
2898;SDS011;1459;50.864;6.438;2022-09-12T04:49:47;34.33;;;24.63;;
2898;SDS011;1459;50.864;6.438;2022-09-12T04:52:15;36.95;;;24.40;;
2898;SDS011;1459;50.864;6.438;2022-09-12T04:54:42;36.45;;;24.25;;
2898;SDS011;1459;50.864;6.438;2022-09-12T04:57:09;28.65;;;22.73;;
2898;SDS011;1459;50.864;6.438;2022-09-12T04:59:36;34.22;;;24.05;;
2898;SDS011;1459;50.864;6.438;2022-09-12T05:02:05;37.95;;;25.13;;
2898;SDS011;1459;50.864;6.438;2022-09-12T05:04:32;34.90;;;24.63;;
2898;SDS011;1459;50.864;6.438;2022-09-12T05:07:00;34.85;;;24.55;;
2898;SDS011;1459;50.864;6.438;2022-09-12T05:09:27;33.33;;;23.85;;
2898;SDS011;1459;50.864;6.438;2022-09-12T05:11:54;32.95;;;24.38;;
2898;SDS011;1459;50.864;6.438;2022-09-12T05:14:21;36.25;;;24.88;;
2898;SDS011;1459;50.864;6.438;2022-09-12T05:16:48;31.48;;;25.55;;
2898;SDS011;1459;50.864;6.438;2022-09-12T05:19:16;34.05;;;23.85;;
2898;SDS011;1459;50.864;6.438;2022-09-12T05:21:43;31.75;;;22.52;;
2898;SDS011;1459;50.864;6.438;2022-09-12T05:24:10;31.23;;;22.48;;
2898;SDS011;1459;50.864;6.438;2022-09-12T05:26:37;32.63;;;24.48;;
2898;SDS011;1459;50.864;6.438;2022-09-12T05:29:04;35.65;;;24.08;;
2898;SDS011;1459;50.864;6.438;2022-09-12T05:31:34;48.65;;;25.27;;
2898;SDS011;1459;50.864;6.438;2022-09-12T05:34:01;35.60;;;23.88;;
2898;SDS011;1459;50.864;6.438;2022-09-12T05:36:31;32.22;;;23.00;;
2898;SDS011;1459;50.864;6.438;2022-09-12T05:38:58;31.10;;;22.60;;
2898;SDS011;1459;50.864;6.438;2022-09-12T05:41:27;32.53;;;22.40;;
2898;SDS011;1459;50.864;6.438;2022-09-12T05:43:55;32.10;;;23.75;;
2898;SDS011;1459;50.864;6.438;2022-09-12T05:46:24;36.30;;;23.00;;
2898;SDS011;1459;50.864;6.438;2022-09-12T05:48:52;32.83;;;25.20;;
2898;SDS011;1459;50.864;6.438;2022-09-12T05:51:20;40.53;;;25.77;;
2898;SDS011;1459;50.864;6.438;2022-09-12T05:53:51;34.78;;;24.15;;
2898;SDS011;1459;50.864;6.438;2022-09-12T05:56:20;32.83;;;24.42;;
2898;SDS011;1459;50.864;6.438;2022-09-12T05:58:51;30.70;;;23.23;;
2898;SDS011;1459;50.864;6.438;2022-09-12T06:01:20;32.90;;;24.05;;
2898;SDS011;1459;50.864;6.438;2022-09-12T06:03:48;36.38;;;24.90;;
2898;SDS011;1459;50.864;6.438;2022-09-12T06:06:16;32.20;;;23.00;;
2898;SDS011;1459;50.864;6.438;2022-09-12T06:08:45;34.92;;;23.23;;
2898;SDS011;1459;50.864;6.438;2022-09-12T06:11:15;34.60;;;22.45;;
2898;SDS011;1459;50.864;6.438;2022-09-12T06:13:43;32.67;;;22.55;;
2898;SDS011;1459;50.864;6.438;2022-09-12T06:16:11;30.83;;;22.15;;
2898;SDS011;1459;50.864;6.438;2022-09-12T06:18:40;30.48;;;21.88;;
2898;SDS011;1459;50.864;6.438;2022-09-12T06:21:08;34.03;;;23.27;;
2898;SDS011;1459;50.864;6.438;2022-09-12T06:23:36;31.85;;;23.85;;
2898;SDS011;1459;50.864;6.438;2022-09-12T06:26:04;34.13;;;23.05;;
2898;SDS011;1459;50.864;6.438;2022-09-12T06:28:35;32.67;;;22.67;;
2898;SDS011;1459;50.864;6.438;2022-09-12T06:31:03;34.47;;;24.55;;
2898;SDS011;1459;50.864;6.438;2022-09-12T06:33:32;36.28;;;24.60;;
2898;SDS011;1459;50.864;6.438;2022-09-12T06:36:01;39.08;;;24.42;;
2898;SDS011;1459;50.864;6.438;2022-09-12T06:38:31;35.10;;;23.40;;
2898;SDS011;1459;50.864;6.438;2022-09-12T06:40:59;34.33;;;23.52;;
2898;SDS011;1459;50.864;6.438;2022-09-12T06:43:29;30.83;;;22.38;;
2898;SDS011;1459;50.864;6.438;2022-09-12T06:45:58;30.50;;;22.88;;
2898;SDS011;1459;50.864;6.438;2022-09-12T06:48:25;32.58;;;22.60;;
2898;SDS011;1459;50.864;6.438;2022-09-12T06:50:56;31.20;;;21.73;;
2898;SDS011;1459;50.864;6.438;2022-09-12T06:53:24;29.08;;;21.55;;
2898;SDS011;1459;50.864;6.438;2022-09-12T06:55:56;29.17;;;22.38;;
2898;SDS011;1459;50.864;6.438;2022-09-12T06:58:23;32.05;;;23.15;;
2898;SDS011;1459;50.864;6.438;2022-09-12T07:00:52;30.05;;;22.50;;
2898;SDS011;1459;50.864;6.438;2022-09-12T07:03:26;32.88;;;22.77;;
2898;SDS011;1459;50.864;6.438;2022-09-12T07:05:53;28.67;;;20.73;;
2898;SDS011;1459;50.864;6.438;2022-09-12T07:08:20;29.63;;;21.08;;
2898;SDS011;1459;50.864;6.438;2022-09-12T07:10:48;29.27;;;22.30;;
2898;SDS011;1459;50.864;6.438;2022-09-12T07:13:15;28.67;;;21.63;;
2898;SDS011;1459;50.864;6.438;2022-09-12T07:15:42;24.75;;;20.17;;
2898;SDS011;1459;50.864;6.438;2022-09-12T07:18:11;30.35;;;21.67;;
2898;SDS011;1459;50.864;6.438;2022-09-12T07:20:38;27.75;;;21.10;;
2898;SDS011;1459;50.864;6.438;2022-09-12T07:23:06;25.67;;;20.20;;
2898;SDS011;1459;50.864;6.438;2022-09-12T07:25:33;29.90;;;21.23;;
2898;SDS011;1459;50.864;6.438;2022-09-12T07:28:01;25.10;;;20.60;;
2898;SDS011;1459;50.864;6.438;2022-09-12T07:30:28;25.70;;;20.08;;
2898;SDS011;1459;50.864;6.438;2022-09-12T07:32:56;23.10;;;18.38;;
2898;SDS011;1459;50.864;6.438;2022-09-12T07:35:24;27.13;;;20.52;;
2898;SDS011;1459;50.864;6.438;2022-09-12T07:37:52;24.48;;;18.58;;
2898;SDS011;1459;50.864;6.438;2022-09-12T07:40:20;22.02;;;17.10;;
2898;SDS011;1459;50.864;6.438;2022-09-12T07:42:47;24.77;;;17.08;;
2898;SDS011;1459;50.864;6.438;2022-09-12T07:45:14;20.48;;;17.13;;
2898;SDS011;1459;50.864;6.438;2022-09-12T07:47:41;22.80;;;17.67;;
2898;SDS011;1459;50.864;6.438;2022-09-12T07:50:09;22.08;;;17.88;;
2898;SDS011;1459;50.864;6.438;2022-09-12T07:52:37;21.85;;;17.75;;
2898;SDS011;1459;50.864;6.438;2022-09-12T07:55:04;21.90;;;16.83;;
2898;SDS011;1459;50.864;6.438;2022-09-12T07:57:32;20.25;;;17.15;;
2898;SDS011;1459;50.864;6.438;2022-09-12T07:59:59;22.98;;;18.20;;
2898;SDS011;1459;50.864;6.438;2022-09-12T08:02:28;19.55;;;14.98;;
2898;SDS011;1459;50.864;6.438;2022-09-12T08:04:55;16.83;;;15.07;;
2898;SDS011;1459;50.864;6.438;2022-09-12T08:07:22;18.85;;;16.92;;
2898;SDS011;1459;50.864;6.438;2022-09-12T08:09:51;18.65;;;16.65;;
2898;SDS011;1459;50.864;6.438;2022-09-12T08:12:18;18.85;;;16.08;;
2898;SDS011;1459;50.864;6.438;2022-09-12T08:14:45;17.98;;;14.25;;
2898;SDS011;1459;50.864;6.438;2022-09-12T08:17:12;17.80;;;14.82;;
2898;SDS011;1459;50.864;6.438;2022-09-12T08:19:39;16.23;;;14.52;;
2898;SDS011;1459;50.864;6.438;2022-09-12T08:22:06;14.93;;;13.32;;
2898;SDS011;1459;50.864;6.438;2022-09-12T08:24:33;13.88;;;12.43;;
2898;SDS011;1459;50.864;6.438;2022-09-12T08:27:02;17.25;;;12.88;;
2898;SDS011;1459;50.864;6.438;2022-09-12T08:29:31;15.70;;;14.07;;
2898;SDS011;1459;50.864;6.438;2022-09-12T08:31:58;15.23;;;13.02;;
2898;SDS011;1459;50.864;6.438;2022-09-12T08:34:25;16.45;;;13.48;;
2898;SDS011;1459;50.864;6.438;2022-09-12T08:36:52;15.70;;;14.10;;
2898;SDS011;1459;50.864;6.438;2022-09-12T08:39:19;15.40;;;13.20;;
2898;SDS011;1459;50.864;6.438;2022-09-12T08:41:47;13.60;;;12.20;;
2898;SDS011;1459;50.864;6.438;2022-09-12T08:44:27;14.05;;;11.68;;
2898;SDS011;1459;50.864;6.438;2022-09-12T08:47:16;13.57;;;12.18;;
2898;SDS011;1459;50.864;6.438;2022-09-12T08:50:01;18.95;;;13.30;;
2898;SDS011;1459;50.864;6.438;2022-09-12T08:52:37;13.32;;;12.02;;
2898;SDS011;1459;50.864;6.438;2022-09-12T08:55:19;13.23;;;11.45;;
2898;SDS011;1459;50.864;6.438;2022-09-12T08:57:56;16.13;;;12.70;;
2898;SDS011;1459;50.864;6.438;2022-09-12T09:00:26;12.82;;;11.48;;
2898;SDS011;1459;50.864;6.438;2022-09-12T09:03:19;14.25;;;12.82;;
2898;SDS011;1459;50.864;6.438;2022-09-12T09:06:09;11.95;;;10.75;;
2898;SDS011;1459;50.864;6.438;2022-09-12T09:08:49;12.48;;;11.23;;
2898;SDS011;1459;50.864;6.438;2022-09-12T09:11:28;12.50;;;11.20;;
2898;SDS011;1459;50.864;6.438;2022-09-12T09:14:07;13.13;;;11.32;;
2898;SDS011;1459;50.864;6.438;2022-09-12T09:17:09;11.82;;;10.68;;
2898;SDS011;1459;50.864;6.438;2022-09-12T09:19:41;10.98;;;9.88;;
2898;SDS011;1459;50.864;6.438;2022-09-12T09:22:13;11.90;;;9.20;;
2898;SDS011;1459;50.864;6.438;2022-09-12T09:24:47;10.48;;;9.15;;
2898;SDS011;1459;50.864;6.438;2022-09-12T09:27:20;13.18;;;11.85;;
2898;SDS011;1459;50.864;6.438;2022-09-12T09:29:55;12.13;;;10.82;;
2898;SDS011;1459;50.864;6.438;2022-09-12T09:32:26;12.93;;;11.63;;
2898;SDS011;1459;50.864;6.438;2022-09-12T09:34:57;13.10;;;11.63;;
2898;SDS011;1459;50.864;6.438;2022-09-12T09:37:27;11.10;;;9.98;;
2898;SDS011;1459;50.864;6.438;2022-09-12T09:40:04;10.02;;;9.10;;
2898;SDS011;1459;50.864;6.438;2022-09-12T09:42:40;8.77;;;7.60;;
2898;SDS011;1459;50.864;6.438;2022-09-12T09:45:13;9.93;;;8.93;;
2898;SDS011;1459;50.864;6.438;2022-09-12T09:47:45;8.02;;;7.22;;
2898;SDS011;1459;50.864;6.438;2022-09-12T09:50:14;8.27;;;7.40;;
2898;SDS011;1459;50.864;6.438;2022-09-12T09:52:43;10.07;;;8.45;;
2898;SDS011;1459;50.864;6.438;2022-09-12T09:55:13;9.38;;;8.30;;
2898;SDS011;1459;50.864;6.438;2022-09-12T09:57:46;11.15;;;9.38;;
2898;SDS011;1459;50.864;6.438;2022-09-12T10:00:20;10.35;;;9.25;;
2898;SDS011;1459;50.864;6.438;2022-09-12T10:03:00;17.10;;;9.63;;
2898;SDS011;1459;50.864;6.438;2022-09-12T10:05:32;10.40;;;8.23;;
2898;SDS011;1459;50.864;6.438;2022-09-12T10:08:02;8.82;;;7.93;;
2898;SDS011;1459;50.864;6.438;2022-09-12T10:10:31;11.75;;;8.50;;
2898;SDS011;1459;50.864;6.438;2022-09-12T10:13:06;9.85;;;8.18;;
2898;SDS011;1459;50.864;6.438;2022-09-12T10:15:35;10.27;;;7.90;;
2898;SDS011;1459;50.864;6.438;2022-09-12T10:18:03;8.77;;;6.82;;
2898;SDS011;1459;50.864;6.438;2022-09-12T10:20:32;8.20;;;7.45;;
2898;SDS011;1459;50.864;6.438;2022-09-12T10:23:14;7.00;;;6.15;;
2898;SDS011;1459;50.864;6.438;2022-09-12T10:25:51;8.18;;;7.05;;
2898;SDS011;1459;50.864;6.438;2022-09-12T10:28:22;7.50;;;6.78;;
2898;SDS011;1459;50.864;6.438;2022-09-12T10:30:53;7.68;;;6.97;;
2898;SDS011;1459;50.864;6.438;2022-09-12T10:33:24;8.88;;;7.97;;
2898;SDS011;1459;50.864;6.438;2022-09-12T10:35:52;7.82;;;5.53;;
2898;SDS011;1459;50.864;6.438;2022-09-12T10:38:21;12.45;;;6.95;;
2898;SDS011;1459;50.864;6.438;2022-09-12T10:40:55;8.60;;;5.60;;
2898;SDS011;1459;50.864;6.438;2022-09-12T10:43:25;6.60;;;5.65;;
2898;SDS011;1459;50.864;6.438;2022-09-12T10:45:58;5.95;;;5.43;;
2898;SDS011;1459;50.864;6.438;2022-09-12T10:48:46;5.65;;;5.15;;
2898;SDS011;1459;50.864;6.438;2022-09-12T10:51:25;5.47;;;4.97;;
2898;SDS011;1459;50.864;6.438;2022-09-12T10:53:53;5.63;;;5.13;;
2898;SDS011;1459;50.864;6.438;2022-09-12T10:56:24;7.45;;;4.82;;
2898;SDS011;1459;50.864;6.438;2022-09-12T11:01:45;6.88;;;4.85;;
2898;SDS011;1459;50.864;6.438;2022-09-12T11:04:30;4.22;;;3.83;;
2898;SDS011;1459;50.864;6.438;2022-09-12T11:07:13;4.10;;;3.70;;
2898;SDS011;1459;50.864;6.438;2022-09-12T11:09:57;4.47;;;3.88;;
2898;SDS011;1459;50.864;6.438;2022-09-12T11:12:29;4.32;;;3.92;;
2898;SDS011;1459;50.864;6.438;2022-09-12T11:15:06;4.20;;;3.80;;
2898;SDS011;1459;50.864;6.438;2022-09-12T11:17:49;3.75;;;3.45;;
2898;SDS011;1459;50.864;6.438;2022-09-12T11:20:37;3.70;;;3.40;;
2898;SDS011;1459;50.864;6.438;2022-09-12T11:23:25;3.72;;;3.40;;
2898;SDS011;1459;50.864;6.438;2022-09-12T11:26:03;3.83;;;3.28;;
2898;SDS011;1459;50.864;6.438;2022-09-12T11:28:45;3.70;;;3.20;;
2898;SDS011;1459;50.864;6.438;2022-09-12T11:31:23;3.60;;;3.30;;
2898;SDS011;1459;50.864;6.438;2022-09-12T11:34:10;3.80;;;2.58;;
2898;SDS011;1459;50.864;6.438;2022-09-12T11:36:50;3.47;;;2.95;;
2898;SDS011;1459;50.864;6.438;2022-09-12T11:39:30;4.38;;;3.05;;
2898;SDS011;1459;50.864;6.438;2022-09-12T11:42:08;4.40;;;2.63;;
2898;SDS011;1459;50.864;6.438;2022-09-12T11:44:39;3.38;;;2.55;;
2898;SDS011;1459;50.864;6.438;2022-09-12T11:47:10;2.70;;;2.50;;
2898;SDS011;1459;50.864;6.438;2022-09-12T11:49:39;4.18;;;2.85;;
2898;SDS011;1459;50.864;6.438;2022-09-12T11:52:12;2.72;;;2.40;;
2898;SDS011;1459;50.864;6.438;2022-09-12T11:54:42;4.90;;;3.17;;
2898;SDS011;1459;50.864;6.438;2022-09-12T11:57:14;3.13;;;2.70;;
2898;SDS011;1459;50.864;6.438;2022-09-12T11:59:46;2.70;;;2.47;;
2898;SDS011;1459;50.864;6.438;2022-09-12T12:02:19;2.78;;;2.50;;
2898;SDS011;1459;50.864;6.438;2022-09-12T12:04:58;2.40;;;2.20;;
2898;SDS011;1459;50.864;6.438;2022-09-12T12:07:34;4.22;;;2.22;;
2898;SDS011;1459;50.864;6.438;2022-09-12T12:10:04;2.13;;;1.85;;
2898;SDS011;1459;50.864;6.438;2022-09-12T12:12:31;3.08;;;2.10;;
2898;SDS011;1459;50.864;6.438;2022-09-12T12:14:59;4.05;;;2.00;;
2898;SDS011;1459;50.864;6.438;2022-09-12T12:17:26;2.60;;;2.40;;
2898;SDS011;1459;50.864;6.438;2022-09-12T12:19:59;2.42;;;2.20;;
2898;SDS011;1459;50.864;6.438;2022-09-12T12:22:29;3.13;;;1.90;;
2898;SDS011;1459;50.864;6.438;2022-09-12T12:25:00;6.43;;;2.10;;
2898;SDS011;1459;50.864;6.438;2022-09-12T12:27:45;2.10;;;1.90;;
2898;SDS011;1459;50.864;6.438;2022-09-12T12:33:01;2.53;;;2.10;;
2898;SDS011;1459;50.864;6.438;2022-09-12T12:35:38;1.88;;;1.73;;
2898;SDS011;1459;50.864;6.438;2022-09-12T12:40:49;2.40;;;2.17;;
2898;SDS011;1459;50.864;6.438;2022-09-12T12:43:27;1.73;;;1.63;;
2898;SDS011;1459;50.864;6.438;2022-09-12T12:46:06;2.70;;;2.00;;
2898;SDS011;1459;50.864;6.438;2022-09-12T12:48:35;1.92;;;1.73;;
2898;SDS011;1459;50.864;6.438;2022-09-12T12:57:00;2.90;;;1.98;;
2898;SDS011;1459;50.864;6.438;2022-09-12T12:59:28;2.80;;;1.83;;
2898;SDS011;1459;50.864;6.438;2022-09-12T13:01:56;2.00;;;1.80;;
2898;SDS011;1459;50.864;6.438;2022-09-12T13:04:25;3.35;;;2.10;;
2898;SDS011;1459;50.864;6.438;2022-09-12T13:06:57;1.83;;;1.73;;
2898;SDS011;1459;50.864;6.438;2022-09-12T13:09:26;2.30;;;1.65;;
2898;SDS011;1459;50.864;6.438;2022-09-12T13:11:56;1.52;;;1.35;;
2898;SDS011;1459;50.864;6.438;2022-09-12T13:14:46;1.95;;;1.85;;
2898;SDS011;1459;50.864;6.438;2022-09-12T13:17:14;2.00;;;1.80;;
2898;SDS011;1459;50.864;6.438;2022-09-12T13:19:44;4.13;;;2.20;;
2898;SDS011;1459;50.864;6.438;2022-09-12T13:22:13;2.17;;;1.77;;
2898;SDS011;1459;50.864;6.438;2022-09-12T13:24:41;2.55;;;1.85;;
2898;SDS011;1459;50.864;6.438;2022-09-12T13:27:16;2.28;;;2.05;;
2898;SDS011;1459;50.864;6.438;2022-09-12T13:29:45;2.28;;;2.00;;
2898;SDS011;1459;50.864;6.438;2022-09-12T13:32:13;3.00;;;2.20;;
2898;SDS011;1459;50.864;6.438;2022-09-12T13:34:45;3.47;;;2.00;;
2898;SDS011;1459;50.864;6.438;2022-09-12T13:40:21;2.17;;;1.88;;
2898;SDS011;1459;50.864;6.438;2022-09-12T13:43:07;2.65;;;1.50;;
2898;SDS011;1459;50.864;6.438;2022-09-12T13:45:40;3.40;;;2.00;;
2898;SDS011;1459;50.864;6.438;2022-09-12T13:48:12;1.60;;;1.50;;
2898;SDS011;1459;50.864;6.438;2022-09-12T13:50:44;2.30;;;2.10;;
2898;SDS011;1459;50.864;6.438;2022-09-12T13:53:16;3.40;;;1.80;;
2898;SDS011;1459;50.864;6.438;2022-09-12T13:55:46;2.38;;;1.73;;
2898;SDS011;1459;50.864;6.438;2022-09-12T13:58:19;2.87;;;2.07;;
2898;SDS011;1459;50.864;6.438;2022-09-12T14:01:00;3.75;;;2.13;;
2898;SDS011;1459;50.864;6.438;2022-09-12T14:03:30;2.17;;;1.80;;
2898;SDS011;1459;50.864;6.438;2022-09-12T14:06:16;2.05;;;1.70;;
2898;SDS011;1459;50.864;6.438;2022-09-12T14:08:45;3.00;;;2.20;;
2898;SDS011;1459;50.864;6.438;2022-09-12T14:11:17;2.30;;;1.97;;
2898;SDS011;1459;50.864;6.438;2022-09-12T14:13:50;3.88;;;1.63;;
2898;SDS011;1459;50.864;6.438;2022-09-12T14:16:19;2.40;;;2.10;;
2898;SDS011;1459;50.864;6.438;2022-09-12T14:18:51;2.73;;;2.10;;
2898;SDS011;1459;50.864;6.438;2022-09-12T14:24:02;2.57;;;2.20;;
2898;SDS011;1459;50.864;6.438;2022-09-12T14:26:33;2.43;;;2.00;;
2898;SDS011;1459;50.864;6.438;2022-09-12T14:29:03;1.97;;;1.77;;
2898;SDS011;1459;50.864;6.438;2022-09-12T14:31:35;2.10;;;1.80;;
2898;SDS011;1459;50.864;6.438;2022-09-12T14:34:07;2.87;;;1.80;;
2898;SDS011;1459;50.864;6.438;2022-09-12T14:36:39;4.80;;;2.20;;
2898;SDS011;1459;50.864;6.438;2022-09-12T14:39:15;3.40;;;2.37;;
2898;SDS011;1459;50.864;6.438;2022-09-12T14:41:47;2.77;;;1.43;;
2898;SDS011;1459;50.864;6.438;2022-09-12T14:44:16;1.70;;;1.60;;
2898;SDS011;1459;50.864;6.438;2022-09-12T14:46:47;2.10;;;1.73;;
2898;SDS011;1459;50.864;6.438;2022-09-12T14:49:15;3.50;;;2.10;;
2898;SDS011;1459;50.864;6.438;2022-09-12T14:51:51;3.70;;;1.70;;
2898;SDS011;1459;50.864;6.438;2022-09-12T14:54:36;1.90;;;1.70;;
2898;SDS011;1459;50.864;6.438;2022-09-12T14:57:16;2.43;;;;;
2898;SDS011;1459;50.864;6.438;2022-09-12T15:00:09;2.30;;;1.73;;
2898;SDS011;1459;50.864;6.438;2022-09-12T15:02:45;2.27;;;1.90;;
2898;SDS011;1459;50.864;6.438;2022-09-12T15:05:20;2.07;;;1.87;;
2898;SDS011;1459;50.864;6.438;2022-09-12T15:07:51;3.87;;;2.37;;
2898;SDS011;1459;50.864;6.438;2022-09-12T15:10:21;1.90;;;1.70;;
2898;SDS011;1459;50.864;6.438;2022-09-12T15:12:49;2.50;;;1.97;;
2898;SDS011;1459;50.864;6.438;2022-09-12T15:15:38;2.60;;;1.80;;
2898;SDS011;1459;50.864;6.438;2022-09-12T15:18:08;2.53;;;1.73;;
2898;SDS011;1459;50.864;6.438;2022-09-12T15:20:38;3.83;;;1.80;;
2898;SDS011;1459;50.864;6.438;2022-09-12T15:23:09;2.83;;;1.80;;
2898;SDS011;1459;50.864;6.438;2022-09-12T15:25:40;1.50;;;1.13;;
2898;SDS011;1459;50.864;6.438;2022-09-12T15:28:10;2.50;;;1.50;;
2898;SDS011;1459;50.864;6.438;2022-09-12T15:30:42;1.80;;;1.60;;
2898;SDS011;1459;50.864;6.438;2022-09-12T15:33:11;1.60;;;1.50;;
2898;SDS011;1459;50.864;6.438;2022-09-12T15:35:39;1.80;;;1.50;;
2898;SDS011;1459;50.864;6.438;2022-09-12T15:38:06;2.13;;;1.40;;
2898;SDS011;1459;50.864;6.438;2022-09-12T15:40:33;3.27;;;1.83;;
2898;SDS011;1459;50.864;6.438;2022-09-12T15:43:03;2.60;;;1.70;;
2898;SDS011;1459;50.864;6.438;2022-09-12T15:45:30;2.87;;;1.57;;
2898;SDS011;1459;50.864;6.438;2022-09-12T15:48:00;2.27;;;1.77;;